Time;durP1;ratioP1;P1;durP2;ratioP2;P2;SDS_P1;SDS_P2;PMS_P1;PMS_P2;Temp;Humidity;BMP_temperature;BMP_pressure;BME280_temperature;BME280_humidity;BME280_pressure;Samples;Min_cycle;Max_cycle;Signal;HPM_P1;HPM_P2
2022/09/03 00:01:34;;;;;;;5.15;3.15;;;;;;;17.49;49.35;100936.09;5073064;28;20089;-59
2022/09/03 00:04:11;;;;;;;4.03;2.90;;;;;;;17.48;49.12;100934.41;5073005;28;20040;-60
2022/09/03 00:06:42;;;;;;;4.53;2.70;;;;;;;17.46;49.48;100946.81;5073009;28;20044;-62
2022/09/03 00:09:30;;;;;;;6.50;3.00;;;;;;;17.50;48.91;100940.47;5073051;28;20053;-59
2022/09/03 00:12:14;;;;;;;7.47;2.88;;;;;;;17.45;49.02;100934.50;5072909;28;20040;-59
2022/09/03 00:14:46;;;;;;;5.00;2.70;;;;;;;17.43;49.55;100933.72;5072874;28;20107;-60
2022/09/03 00:17:21;;;;;;;4.57;2.60;;;;;;;17.39;49.37;100935.59;5072759;28;20089;-60
2022/09/03 00:19:55;;;;;;;5.72;2.50;;;;;;;17.40;49.73;100936.47;5072697;28;20372;-60
2022/09/03 00:22:32;;;;;;;4.72;2.58;;;;;;;17.41;49.38;100935.56;5072734;28;20125;-60
2022/09/03 00:25:01;;;;;;;4.82;3.10;;;;;;;17.37;49.48;100933.94;5071995;28;20048;-58
2022/09/03 00:27:28;;;;;;;5.38;3.00;;;;;;;17.40;49.58;100936.47;5072616;28;20053;-59
2022/09/03 00:30:17;;;;;;;6.50;3.03;;;;;;;17.36;49.31;100932.22;5072513;28;20028;-60
2022/09/03 00:32:56;;;;;;;5.15;2.97;;;;;;;17.32;49.70;100933.25;5064376;28;20121;-60
2022/09/03 00:35:46;;;;;;;5.72;3.30;;;;;;;17.27;49.25;100932.59;5072584;28;20032;-60
2022/09/03 00:38:12;;;;;;;7.38;3.42;;;;;;;17.16;49.96;100917.13;5072358;28;20044;-59
2022/09/03 00:41:05;;;;;;;5.72;3.10;;;;;;;17.18;50.24;100938.22;5072103;28;20044;-61
2022/09/03 00:43:49;;;;;;;4.45;3.30;;;;;;;17.15;50.52;100931.28;5072457;28;20032;-60
2022/09/03 00:46:30;;;;;;;6.55;3.63;;;;;;;17.15;50.14;100933.06;5072206;28;20039;-60
2022/09/03 00:49:32;;;;;;;8.57;3.77;;;;;;;17.13;50.24;100934.94;5072198;28;20036;-61
2022/09/03 00:52:23;;;;;;;5.30;2.95;;;;;;;17.07;51.03;100929.88;5072248;28;20281;-60
2022/09/03 00:54:59;;;;;;;8.38;3.72;;;;;;;17.05;51.22;100932.56;5048165;28;20060;-60
2022/09/03 00:57:57;;;;;;;6.95;3.60;;;;;;;17.05;50.84;100938.72;5072274;28;20047;-61
2022/09/03 01:00:23;;;;;;;6.18;3.60;;;;;;;16.99;51.58;100922.22;5072166;28;20040;-61
2022/09/03 01:03:06;;;;;;;5.15;3.30;;;;;;;16.99;51.21;100930.16;5071910;28;20366;-62
2022/09/03 01:06:02;;;;;;;4.55;3.30;;;;;;;16.82;51.61;100907.00;5071863;28;20110;-59
2022/09/03 01:08:37;;;;;;;4.03;3.13;;;;;;;16.90;51.97;100931.38;5071968;28;20032;-60
2022/09/03 01:11:17;;;;;;;5.32;3.25;;;;;;;16.84;52.31;100931.59;5071844;28;20106;-59
2022/09/03 01:13:52;;;;;;;5.25;3.60;;;;;;;16.83;51.80;100929.00;5071447;28;20410;-60
2022/09/03 01:16:38;;;;;;;5.75;3.47;;;;;;;16.76;51.55;100933.69;5071830;28;20024;-61
2022/09/03 01:19:26;;;;;;;7.38;3.97;;;;;;;16.77;51.61;100919.56;5071953;28;20100;-59
2022/09/03 01:22:24;;;;;;;6.88;3.53;;;;;;;16.72;52.04;100918.84;5071541;28;20054;-61
2022/09/03 01:25:14;;;;;;;8.63;4.25;;;;;;;16.66;52.69;100925.22;5071707;28;20025;-61
2022/09/03 01:28:05;;;;;;;8.77;4.25;;;;;;;16.66;52.05;100934.94;5071731;28;20036;-64
2022/09/03 01:30:37;;;;;;;7.82;4.38;;;;;;;16.53;52.89;100929.22;5070705;28;20028;-59
2022/09/03 01:33:16;;;;;;;9.38;4.38;;;;;;;16.53;52.81;100925.72;5071606;28;20044;-59
2022/09/03 01:36:10;;;;;;;9.52;4.82;;;;;;;16.55;52.47;100926.50;5071601;28;20117;-58
2022/09/03 01:38:57;;;;;;;7.63;4.65;;;;;;;16.51;52.52;100933.69;5071279;28;20480;-61
2022/09/03 01:44:40;;;;;;;8.93;5.25;;;;;;;16.45;52.73;100923.34;5071152;28;20102;-59
2022/09/03 01:47:36;;;;;;;10.68;5.13;;;;;;;16.42;52.90;100923.47;5071434;28;20036;-59
2022/09/03 01:50:12;;;;;;;7.45;4.78;;;;;;;16.40;53.21;100922.66;5071452;28;20055;-61
2022/09/03 01:52:55;;;;;;;7.82;4.78;;;;;;;16.27;53.21;100901.13;5071640;28;20032;-59
2022/09/03 01:55:32;;;;;;;7.05;4.55;;;;;;;16.31;53.41;100920.34;5071280;28;20035;-60
2022/09/03 01:58:20;;;;;;;10.30;5.03;;;;;;;16.29;53.22;100920.38;5071344;28;20447;-60
2022/09/03 02:00:52;;;;;;;8.27;4.88;;;;;;;16.33;53.29;100921.13;5071443;28;20033;-58
2022/09/03 02:03:17;;;;;;;9.60;4.80;;;;;;;16.22;53.35;100925.97;5071353;28;20119;-58
2022/09/03 02:05:45;;;;;;;8.60;4.65;;;;;;;16.21;53.63;100926.88;5071408;28;20112;-63
2022/09/03 02:08:11;;;;;;;11.25;5.15;;;;;;;16.20;53.65;100933.94;5071108;28;20028;-59
2022/09/03 02:10:44;;;;;;;8.98;4.63;;;;;;;16.14;53.96;100935.91;5071377;28;20028;-62
2022/09/03 02:13:15;;;;;;;10.48;5.30;;;;;;;16.10;54.37;100929.91;5071184;28;20447;-61
2022/09/03 02:15:44;;;;;;;9.52;5.47;;;;;;;16.02;54.64;100924.88;5071332;28;20050;-61
2022/09/03 02:18:17;;;;;;;9.80;6.10;;;;;;;16.03;54.55;100917.81;5071192;28;20036;-60
2022/09/03 02:20:43;;;;;;;8.77;5.10;;;;;;;16.02;54.58;100918.72;5071184;28;20094;-59
2022/09/03 02:23:08;;;;;;;8.27;5.55;;;;;;;16.02;54.63;100926.66;5071213;28;20102;-60
2022/09/03 02:25:38;;;;;;;9.20;4.85;;;;;;;15.98;54.55;100914.47;5071243;28;20432;-60
2022/09/03 02:28:05;;;;;;;10.10;5.57;;;;;;;15.98;54.99;100915.31;5071090;28;20566;-62
2022/09/03 02:30:31;;;;;;;9.82;5.13;;;;;;;15.98;54.52;100925.00;5071121;28;20116;-60
2022/09/03 02:32:56;;;;;;;9.23;5.40;;;;;;;15.96;54.66;100918.94;5070937;28;20511;-60
2022/09/03 02:35:21;;;;;;;8.93;5.20;;;;;;;15.97;54.55;100921.50;5070930;28;20036;-62
2022/09/03 02:37:47;;;;;;;9.50;5.70;;;;;;;15.88;54.88;100919.22;5071051;28;20044;-61
2022/09/03 02:40:12;;;;;;;9.40;5.32;;;;;;;15.88;55.29;100916.56;5070626;28;20158;-60
2022/09/03 02:42:37;;;;;;;9.73;5.53;;;;;;;15.90;55.14;100927.94;5070573;28;20043;-63
2022/09/03 02:45:15;;;;;;;8.48;5.25;;;;;;;15.86;54.97;100917.53;5070901;28;20032;-59
2022/09/03 02:47:43;;;;;;;7.45;5.18;;;;;;;15.88;55.31;100915.69;5071243;28;20043;-61
2022/09/03 02:50:09;;;;;;;9.27;5.10;;;;;;;15.65;55.47;100898.00;5074704;28;20033;-61
2022/09/03 02:52:34;;;;;;;12.70;5.03;;;;;;;15.69;55.80;100910.19;5074493;28;20032;-60
2022/09/03 02:54:59;;;;;;;7.95;5.25;;;;;;;15.67;56.21;100909.38;5074651;28;20032;-60
2022/09/03 02:57:25;;;;;;;10.00;5.40;;;;;;;15.68;55.88;100919.00;5074471;28;20040;-61
2022/09/03 02:59:50;;;;;;;9.77;5.20;;;;;;;15.68;55.99;100912.88;5074264;28;20289;-60
2022/09/03 03:02:15;;;;;;;7.47;5.20;;;;;;;15.68;56.11;100910.22;5074258;28;20044;-61
2022/09/03 03:04:41;;;;;;;9.50;5.20;;;;;;;15.64;56.21;100918.25;5074279;28;20063;-59
2022/09/03 03:07:06;;;;;;;11.02;6.30;;;;;;;15.62;56.39;100913.91;5074342;28;20032;-60
2022/09/03 03:09:31;;;;;;;10.82;6.47;;;;;;;15.61;56.58;100914.84;5074149;28;20130;-59
2022/09/03 03:11:57;;;;;;;9.07;6.22;;;;;;;15.57;56.38;100923.78;5074294;28;20457;-59
2022/09/03 03:14:22;;;;;;;11.90;6.57;;;;;;;15.58;56.29;100922.88;5074214;28;20085;-60
2022/09/03 03:16:48;;;;;;;12.93;6.70;;;;;;;15.56;56.08;100916.78;5073612;28;20036;-61
2022/09/03 03:19:14;;;;;;;10.60;6.15;;;;;;;15.48;56.53;100916.13;5074000;28;20086;-59
2022/09/03 03:21:39;;;;;;;9.57;5.80;;;;;;;15.45;56.39;100921.50;5074088;28;20756;-61
2022/09/03 03:24:05;;;;;;;9.18;5.63;;;;;;;15.46;57.08;100924.09;5074199;28;20032;-62
2022/09/03 03:26:31;;;;;;;7.95;5.78;;;;;;;15.42;56.98;100914.53;5074098;28;20024;-58
2022/09/03 03:28:59;;;;;;;9.98;6.20;;;;;;;15.40;57.29;100921.66;5073280;28;20085;-62
2022/09/03 03:31:25;;;;;;;10.10;6.25;;;;;;;15.42;57.08;100919.81;5073808;28;20093;-61
2022/09/03 03:33:56;;;;;;;10.25;5.82;;;;;;;15.42;57.19;100913.66;5073679;28;20059;-60
2022/09/03 03:36:23;;;;;;;9.40;5.97;;;;;;;15.37;57.35;100918.25;5073602;28;20028;-61
2022/09/03 03:38:52;;;;;;;10.73;6.10;;;;;;;15.37;57.01;100923.53;5073658;28;20435;-62
2022/09/03 03:41:20;;;;;;;9.35;6.50;;;;;;;15.41;56.90;100926.00;5073419;28;20445;-62
2022/09/03 03:43:46;;;;;;;10.23;6.45;;;;;;;15.34;56.63;100913.94;5073465;28;20051;-61
2022/09/03 03:46:12;;;;;;;9.70;6.20;;;;;;;15.29;56.97;100911.44;5073627;28;20728;-61
2022/09/03 03:48:38;;;;;;;8.25;5.93;;;;;;;15.38;56.90;100917.34;5073421;28;20161;-60
2022/09/03 03:51:06;;;;;;;10.80;6.55;;;;;;;15.37;56.86;100919.13;5073348;28;20462;-59
2022/09/03 03:53:33;;;;;;;12.57;6.45;;;;;;;15.28;56.76;100908.84;5073531;28;20029;-60
2022/09/03 03:56:01;;;;;;;10.00;6.75;;;;;;;15.36;56.84;100927.06;5073361;28;20044;-62
2022/09/03 03:58:28;;;;;;;10.50;6.82;;;;;;;15.41;56.58;100928.63;5073196;28;20359;-61
2022/09/03 04:00:53;;;;;;;10.65;6.43;;;;;;;15.42;56.73;100924.22;5073188;28;20114;-58
2022/09/03 04:03:19;;;;;;;9.85;6.35;;;;;;;15.42;56.43;100921.59;5073270;28;20440;-62
2022/09/03 04:05:58;;;;;;;8.80;6.22;;;;;;;15.37;56.48;100916.47;5073150;28;20454;-60
2022/09/03 04:08:24;;;;;;;8.50;5.90;;;;;;;15.23;57.11;100901.09;5073145;28;20028;-59
2022/09/03 04:10:49;;;;;;;8.10;5.60;;;;;;;15.22;57.19;100919.59;5072969;28;20033;-60
2022/09/03 04:13:14;;;;;;;8.27;5.38;;;;;;;15.35;56.97;100922.72;5072949;28;20032;-60
2022/09/03 04:15:41;;;;;;;9.27;5.40;;;;;;;15.30;57.65;100917.56;5072920;28;20040;-61
2022/09/03 04:18:07;;;;;;;8.75;4.75;;;;;;;15.33;57.16;100925.38;5072754;28;20270;-63
2022/09/03 04:20:32;;;;;;;8.88;4.80;;;;;;;15.28;57.52;100911.47;5072835;28;20047;-60
2022/09/03 04:23:01;;;;;;;7.93;4.50;;;;;;;15.21;57.63;100915.25;5072954;28;20123;-62
2022/09/03 04:25:27;;;;;;;8.68;4.47;;;;;;;15.24;57.39;100918.63;5072275;28;20669;-58
2022/09/03 04:27:52;;;;;;;6.53;4.65;;;;;;;15.23;57.75;100918.69;5072724;28;20040;-61
2022/09/03 04:30:19;;;;;;;9.15;5.03;;;;;;;15.23;57.79;100918.69;5072646;28;20032;-59
2022/09/03 04:32:53;;;;;;;8.23;4.63;;;;;;;15.21;57.54;100916.09;5072502;28;20456;-60
2022/09/03 04:35:24;;;;;;;12.52;5.15;;;;;;;15.18;57.53;100910.91;5072268;28;20028;-58
2022/09/03 04:37:49;;;;;;;7.78;4.60;;;;;;;15.24;57.80;100912.47;5072478;28;20367;-58
2022/09/03 04:40:15;;;;;;;9.98;5.10;;;;;;;15.18;57.86;100907.41;5072076;28;20036;-60
2022/09/03 04:42:40;;;;;;;8.60;4.65;;;;;;;15.17;58.11;100906.56;5072237;28;20486;-62
2022/09/03 04:45:07;;;;;;;8.02;4.60;;;;;;;15.16;57.73;100912.75;5072200;28;20040;-60
2022/09/03 04:47:32;;;;;;;10.80;5.05;;;;;;;15.20;57.91;100916.16;5072426;28;20041;-60
2022/09/03 04:49:57;;;;;;;13.48;6.50;;;;;;;15.15;57.51;100916.28;5072348;28;20101;-61
2022/09/03 04:52:23;;;;;;;8.93;5.63;;;;;;;15.09;58.04;100900.66;5072177;28;20343;-61
2022/09/03 04:54:48;;;;;;;11.00;5.70;;;;;;;15.14;57.98;100921.59;5072121;28;20170;-61
2022/09/03 04:57:14;;;;;;;8.45;5.82;;;;;;;15.07;58.13;100923.53;5072170;28;20086;-61
2022/09/03 04:59:39;;;;;;;8.98;6.53;;;;;;;15.05;58.08;100920.13;5072096;28;20514;-58
2022/09/03 05:02:07;;;;;;;8.18;6.13;;;;;;;14.95;58.89;100916.03;5071985;28;20119;-59
2022/09/03 05:04:32;;;;;;;8.27;6.40;;;;;;;15.03;58.24;100921.06;5072089;28;20064;-58
2022/09/03 05:06:57;;;;;;;10.07;6.70;;;;;;;14.98;58.51;100915.94;5071422;28;20056;-59
2022/09/03 05:09:23;;;;;;;9.67;6.57;;;;;;;15.00;59.03;100919.41;5071685;28;20033;-60
2022/09/03 05:11:48;;;;;;;13.73;6.93;;;;;;;14.99;58.74;100925.56;5071482;28;20610;-59
2022/09/03 05:14:13;;;;;;;9.05;6.75;;;;;;;15.01;58.84;100920.25;5071864;28;20047;-58
2022/09/03 05:16:38;;;;;;;11.63;6.93;;;;;;;15.02;58.61;100917.56;5071926;28;20449;-62
2022/09/03 05:19:04;;;;;;;12.02;6.47;;;;;;;15.00;58.97;100919.41;5071847;28;20039;-61
2022/09/03 05:21:30;;;;;;;8.50;6.07;;;;;;;14.99;59.03;100920.31;5071697;28;20158;-59
2022/09/03 05:23:57;;;;;;;9.75;6.30;;;;;;;15.05;58.90;100921.91;5070048;28;20443;-60
2022/09/03 05:26:25;;;;;;;10.80;5.95;;;;;;;15.04;59.08;100917.53;5071463;28;20032;-62
2022/09/03 05:28:59;;;;;;;10.02;5.97;;;;;;;15.02;58.99;100916.72;5068723;28;20041;-60
2022/09/03 05:31:26;;;;;;;8.75;6.22;;;;;;;15.03;58.93;100923.72;5071688;28;20028;-60
2022/09/03 05:33:58;;;;;;;10.07;5.75;;;;;;;15.07;58.80;100918.28;5071469;28;20041;-59
2022/09/03 05:36:26;;;;;;;11.57;5.65;;;;;;;15.10;58.31;100919.97;5071419;28;20067;-59
2022/09/03 05:38:54;;;;;;;10.32;6.07;;;;;;;15.18;58.42;100912.69;5071232;28;20039;-60
2022/09/03 05:41:22;;;;;;;10.32;6.00;;;;;;;15.15;58.46;100918.06;5071299;28;20060;-57
2022/09/03 05:43:54;;;;;;;14.13;7.10;;;;;;;15.15;58.49;100918.91;5071382;28;20055;-60
2022/09/03 05:46:23;;;;;;;11.43;6.57;;;;;;;15.14;58.45;100916.31;5071565;28;20489;-59
2022/09/03 05:48:48;;;;;;;10.50;6.78;;;;;;;15.15;58.68;100908.38;5071166;28;20036;-61
2022/09/03 05:51:16;;;;;;;9.50;5.93;;;;;;;15.31;57.85;100911.38;5071430;28;20032;-58
2022/09/03 05:53:46;;;;;;;10.40;6.07;;;;;;;15.42;57.86;100916.31;5071373;28;20032;-61
2022/09/03 05:56:17;;;;;;;12.95;5.53;;;;;;;15.56;57.73;100920.28;5071321;28;20745;-60
2022/09/03 05:58:44;;;;;;;9.48;5.50;;;;;;;15.72;56.82;100912.72;5071457;28;20044;-59
2022/09/03 06:01:11;;;;;;;11.60;5.60;;;;;;;15.80;56.70;100917.72;5064479;28;20047;-58
2022/09/03 06:03:37;;;;;;;12.55;5.68;;;;;;;15.88;56.10;100910.44;5071324;28;20483;-61
2022/09/03 06:06:04;;;;;;;10.80;5.75;;;;;;;16.05;55.85;100909.84;5070786;28;20040;-58
2022/09/03 06:08:29;;;;;;;8.93;5.55;;;;;;;16.09;55.43;100908.81;5071292;28;20090;-60
2022/09/03 06:10:58;;;;;;;14.32;6.03;;;;;;;16.18;55.28;100913.78;5071372;28;20722;-58
2022/09/03 06:13:24;;;;;;;11.80;5.95;;;;;;;16.31;55.18;100921.19;5071342;28;20036;-59
2022/09/03 06:15:49;;;;;;;11.18;5.95;;;;;;;16.38;55.13;100894.56;5071229;28;20058;-60
2022/09/03 06:18:14;;;;;;;15.27;6.00;;;;;;;16.48;54.81;100915.31;5070820;28;20039;-59
2022/09/03 06:20:40;;;;;;;11.52;6.20;;;;;;;16.60;54.67;100917.50;5061045;28;20327;-58
2022/09/03 06:23:05;;;;;;;14.27;6.70;;;;;;;16.68;54.43;100911.97;5052180;28;20130;-60
2022/09/03 06:25:30;;;;;;;11.57;6.13;;;;;;;16.74;54.04;100918.81;5055128;28;20055;-59
2022/09/03 06:27:56;;;;;;;11.90;6.47;;;;;;;16.85;53.85;100919.25;5055138;28;20024;-58
2022/09/03 06:30:22;;;;;;;12.43;6.22;;;;;;;16.93;53.25;100914.53;5053636;28;20171;-58
2022/09/03 06:32:49;;;;;;;12.85;6.90;;;;;;;17.00;52.99;100919.53;5054867;28;20045;-58
2022/09/03 06:35:15;;;;;;;10.68;6.38;;;;;;;17.14;52.81;100923.44;5054605;28;20457;-60
2022/09/03 06:37:41;;;;;;;14.65;6.25;;;;;;;17.28;52.66;100919.31;5064828;28;20044;-57
2022/09/03 06:40:21;;;;;;;12.30;6.07;;;;;;;17.41;52.08;100917.03;5074112;28;20363;-61
2022/09/03 06:42:58;;;;;;;14.38;6.50;;;;;;;17.51;51.81;100910.44;5074654;28;20040;-60
2022/09/03 06:45:24;;;;;;;14.35;6.45;;;;;;;17.59;51.05;100918.06;5074535;28;20044;-61
2022/09/03 06:47:49;;;;;;;14.52;6.82;;;;;;;17.63;51.33;100920.53;5071605;28;20109;-59
2022/09/03 06:50:17;;;;;;;13.57;6.47;;;;;;;17.66;50.91;100917.75;5054844;28;20044;-60
2022/09/03 06:52:42;;;;;;;13.27;6.95;;;;;;;17.70;50.96;100918.50;5054471;28;20399;-60
2022/09/03 06:55:08;;;;;;;13.27;6.63;;;;;;;17.78;51.35;100919.06;5054473;28;20074;-59
2022/09/03 06:57:33;;;;;;;12.93;6.28;;;;;;;17.86;50.98;100919.59;5054304;28;20622;-60
2022/09/03 06:59:58;;;;;;;11.60;6.07;;;;;;;17.93;50.83;100915.75;5054429;28;20042;-62
2022/09/03 07:02:23;;;;;;;13.83;6.27;;;;;;;18.04;50.38;100917.94;5054187;28;20315;-59
2022/09/03 07:04:49;;;;;;;11.15;6.05;;;;;;;18.11;50.49;100908.81;5054279;28;20580;-58
2022/09/03 07:07:15;;;;;;;12.07;6.05;;;;;;;18.21;50.05;100918.06;5054240;28;20119;-60
2022/09/03 07:09:40;;;;;;;13.25;6.07;;;;;;;18.30;50.52;100924.78;5054346;28;20033;-60
2022/09/03 07:12:06;;;;;;;13.15;5.93;;;;;;;18.41;49.94;100918.06;5053580;28;20040;-61
2022/09/03 07:14:31;;;;;;;9.73;5.25;;;;;;;18.48;49.27;100917.78;5054187;28;20032;-59
2022/09/03 07:16:57;;;;;;;11.10;4.60;;;;;;;18.44;49.49;100928.53;5053894;28;20028;-59
2022/09/03 07:19:22;;;;;;;8.13;4.32;;;;;;;18.40;50.18;100918.13;5053878;28;20456;-60
2022/09/03 07:21:47;;;;;;;8.37;4.20;;;;;;;18.44;49.08;100923.22;5053699;28;20041;-60
2022/09/03 07:24:12;;;;;;;7.07;3.50;;;;;;;18.47;49.54;100916.94;5053796;28;20271;-60
2022/09/03 07:26:43;;;;;;;6.43;3.30;;;;;;;18.49;50.20;100924.81;5053957;28;20032;-59
2022/09/03 07:29:10;;;;;;;7.30;3.08;;;;;;;18.42;49.77;100921.56;5053476;28;20474;-60
2022/09/03 07:31:38;;;;;;;6.03;2.90;;;;;;;18.41;49.80;100922.50;5053673;28;20033;-59
2022/09/03 07:34:09;;;;;;;7.25;2.63;;;;;;;18.40;50.26;100934.03;5053409;28;20048;-60
2022/09/03 07:36:45;;;;;;;4.50;2.40;;;;;;;18.34;49.75;100927.22;5053387;28;20040;-60
2022/09/03 07:39:12;;;;;;;4.15;2.42;;;;;;;18.32;50.27;100933.50;5053676;28;20025;-60
2022/09/03 07:41:38;;;;;;;3.40;2.17;;;;;;;18.28;50.42;100932.78;5053538;28;20053;-59
2022/09/03 07:44:06;;;;;;;3.70;2.10;;;;;;;18.33;50.69;100936.09;5053331;28;20044;-60
2022/09/03 07:46:34;;;;;;;3.78;2.03;;;;;;;18.43;50.87;100929.44;5053382;28;20052;-60
2022/09/03 07:49:03;;;;;;;4.95;2.30;;;;;;;18.49;50.29;100932.75;5053450;28;20037;-59
2022/09/03 07:51:31;;;;;;;4.22;1.90;;;;;;;18.59;50.04;100931.44;5053409;28;20122;-60
2022/09/03 07:54:00;;;;;;;3.75;2.22;;;;;;;18.70;50.03;100931.84;5053410;28;20195;-60
2022/09/03 07:56:26;;;;;;;4.68;1.70;;;;;;;18.83;49.74;100929.47;5053413;28;20356;-60
2022/09/03 07:58:54;;;;;;;3.83;1.70;;;;;;;18.93;49.10;100928.09;5053343;28;20048;-60
2022/09/03 08:01:21;;;;;;;5.10;1.90;;;;;;;18.95;48.55;100916.50;5053303;28;20171;-58
2022/09/03 08:03:49;;;;;;;3.50;1.55;;;;;;;19.13;48.52;100928.91;5052859;28;20374;-58
2022/09/03 08:06:16;;;;;;;4.70;1.70;;;;;;;19.18;48.98;100934.00;5053059;28;20045;-60
2022/09/03 08:08:43;;;;;;;6.40;1.80;;;;;;;19.27;48.52;100930.88;5052696;28;20029;-60
2022/09/03 08:11:20;;;;;;;2.83;1.60;;;;;;;19.32;48.99;100922.72;5052931;28;20428;-58
2022/09/03 08:13:48;;;;;;;4.68;1.70;;;;;;;19.44;48.79;100930.06;5053187;28;20032;-58
2022/09/03 08:16:17;;;;;;;3.58;1.60;;;;;;;19.50;48.08;100927.16;5052782;28;20029;-61
2022/09/03 08:18:42;;;;;;;5.70;1.52;;;;;;;19.57;48.21;100931.22;5053048;28;20049;-60
2022/09/03 08:21:12;;;;;;;3.78;1.70;;;;;;;19.65;47.84;100925.53;5052893;28;20032;-59
2022/09/03 08:23:39;;;;;;;4.30;1.45;;;;;;;19.67;48.24;100932.50;5052863;28;20415;-59
2022/09/03 08:26:06;;;;;;;7.53;1.83;;;;;;;19.79;48.03;100931.88;5052423;28;20048;-59
2022/09/03 08:28:33;;;;;;;4.22;1.55;;;;;;;19.86;47.72;100928.91;5052868;28;20043;-59
2022/09/03 08:31:10;;;;;;;2.90;1.40;;;;;;;20.01;47.95;100941.44;5053030;28;20348;-58
2022/09/03 08:33:36;;;;;;;3.78;1.60;;;;;;;20.06;47.43;100934.09;5052063;28;20162;-58
2022/09/03 08:36:04;;;;;;;4.95;1.58;;;;;;;20.12;46.88;100936.41;5052605;28;20043;-59
2022/09/03 08:38:31;;;;;;;3.78;1.80;;;;;;;20.21;46.88;100938.59;5052615;28;20039;-59
2022/09/03 08:41:05;;;;;;;3.88;1.50;;;;;;;20.35;46.63;100944.06;5052204;28;20436;-60
2022/09/03 08:43:36;;;;;;;5.68;1.70;;;;;;;20.76;45.47;100949.03;5052497;28;20127;-59
2022/09/03 08:46:02;;;;;;;;;;;;;;;20.95;45.80;100954.22;5052140;28;20033;-60
2022/09/03 08:48:27;;;;;;;3.17;1.70;;;;;;;21.54;44.14;100940.22;5052107;28;19927;-59
2022/09/03 08:51:00;;;;;;;5.30;1.70;;;;;;;21.54;42.88;100937.56;5052334;28;20037;-61
2022/09/03 08:53:44;;;;;;;4.78;1.60;;;;;;;21.46;42.93;100950.47;5052365;28;20037;-60
2022/09/03 08:56:13;;;;;;;5.78;1.70;;;;;;;21.71;42.43;100932.13;5052296;28;20472;-59
2022/09/03 08:58:43;;;;;;;3.00;1.33;;;;;;;22.02;42.00;100941.00;5051852;28;20037;-59
2022/09/03 09:01:10;;;;;;;2.78;1.40;;;;;;;22.06;41.71;100932.75;5051982;28;20052;-60
2022/09/03 09:03:43;;;;;;;4.20;1.52;;;;;;;22.09;41.76;100935.22;5052258;28;20043;-51
2022/09/03 09:06:46;;;;;;;7.25;1.60;;;;;;;22.10;42.17;100934.28;5052179;28;20028;-52
2022/09/03 09:09:52;;;;;;;4.55;1.50;;;;;;;22.02;41.73;100939.19;5051804;28;20047;-59
2022/09/03 09:12:34;;;;;;;3.42;1.40;;;;;;;22.07;42.04;100942.44;5009780;28;20041;-60
2022/09/03 09:15:17;;;;;;;2.70;1.50;;;;;;;22.11;41.96;100943.13;5047989;28;20136;-60
2022/09/03 09:17:58;;;;;;;3.13;1.70;;;;;;;22.28;42.01;100939.44;5051795;28;20084;-58
2022/09/03 09:20:34;;;;;;;2.50;1.70;;;;;;;22.48;41.64;100952.44;5051590;28;20424;-51
2022/09/03 09:23:05;;;;;;;2.67;1.50;;;;;;;22.54;40.77;100950.22;5051751;28;20033;-60
2022/09/03 09:25:31;;;;;;;3.28;1.60;;;;;;;22.78;41.02;100952.38;5051878;28;20363;-60
2022/09/03 09:28:02;;;;;;;3.00;1.60;;;;;;;22.94;40.47;100947.78;5052000;28;20041;-59
2022/09/03 09:30:30;;;;;;;5.53;1.48;;;;;;;23.15;40.45;100942.91;5051706;28;20029;-61
2022/09/03 09:32:55;;;;;;;5.72;1.75;;;;;;;23.22;39.92;100934.38;5051762;28;20178;-60
2022/09/03 09:35:21;;;;;;;1.90;1.40;;;;;;;23.38;39.82;100941.44;5051687;28;20120;-61
2022/09/03 09:37:52;;;;;;;5.90;1.50;;;;;;;23.52;39.11;100926.25;5051753;28;20136;-61
2022/09/03 09:40:31;;;;;;;2.43;1.30;;;;;;;23.75;39.10;100924.69;5051512;28;20045;-60
2022/09/03 09:43:10;;;;;;;4.18;1.70;;;;;;;23.71;39.29;100923.22;5051598;28;20298;-59
2022/09/03 09:45:39;;;;;;;2.88;1.60;;;;;;;23.82;38.76;100928.69;5051549;28;20033;-59
2022/09/03 09:48:12;;;;;;;5.63;1.40;;;;;;;23.91;38.29;100929.84;5051646;28;20372;-60
2022/09/03 09:50:37;;;;;;;4.50;2.05;;;;;;;24.08;37.79;100936.72;5051227;28;20029;-60
2022/09/03 09:53:13;;;;;;;4.18;1.70;;;;;;;24.19;37.31;100937.72;5050976;28;20029;-60
2022/09/03 09:55:54;;;;;;;7.15;1.73;;;;;;;24.27;37.75;100935.41;5050979;28;20101;-60
2022/09/03 09:58:22;;;;;;;4.00;1.70;;;;;;;24.38;37.16;100928.47;5054589;28;20437;-59
2022/09/03 10:01:20;;;;;;;5.32;1.70;;;;;;;24.39;37.23;100944.41;5055580;28;20032;-58
2022/09/03 10:03:55;;;;;;;4.15;1.50;;;;;;;24.36;37.20;100933.94;5055082;28;20037;-59
2022/09/03 10:09:17;;;;;;;5.47;1.75;;;;;;;24.66;36.73;100930.06;5055380;28;20056;-59
2022/09/03 10:12:03;;;;;;;4.13;1.73;;;;;;;24.83;36.44;100938.59;5055073;28;20074;-60
2022/09/03 10:14:50;;;;;;;3.05;1.40;;;;;;;25.01;36.69;100927.56;5055313;28;20037;-61
2022/09/03 10:17:24;;;;;;;5.00;1.90;;;;;;;24.93;36.12;100925.44;5054816;28;20136;-61
2022/09/03 10:20:29;;;;;;;2.17;1.50;;;;;;;25.02;36.82;100915.88;5055365;28;20056;-60
2022/09/03 10:23:04;;;;;;;3.30;1.58;;;;;;;25.24;36.23;100916.91;5055013;28;20514;-60
2022/09/03 10:25:38;;;;;;;4.13;2.10;;;;;;;25.31;35.68;100915.47;5054899;28;20502;-58
2022/09/03 10:28:06;;;;;;;4.30;1.60;;;;;;;25.33;35.98;100915.34;5054758;28;20110;-61
2022/09/03 10:30:46;;;;;;;2.47;1.50;;;;;;;25.39;35.72;100914.91;5054880;28;20471;-60
2022/09/03 10:33:38;;;;;;;5.82;2.03;;;;;;;25.43;36.39;100916.41;5054843;28;20115;-60
2022/09/03 10:36:18;;;;;;;1.73;1.58;;;;;;;25.44;35.50;100914.56;5054849;28;20356;-59
2022/09/03 10:38:50;;;;;;;5.75;1.65;;;;;;;25.66;35.71;100912.88;5054774;28;20055;-59
2022/09/03 10:41:36;;;;;;;2.20;1.40;;;;;;;25.68;35.05;100915.44;5054628;28;20172;-59
2022/09/03 10:44:24;;;;;;;4.25;1.30;;;;;;;25.80;35.34;100914.50;5054638;28;20406;-59
2022/09/03 10:47:02;;;;;;;2.15;1.60;;;;;;;25.83;34.35;100918.78;5054662;28;20040;-58
2022/09/03 10:49:32;;;;;;;4.45;1.52;;;;;;;25.74;35.17;100912.31;5054595;28;20033;-59
2022/09/03 10:52:33;;;;;;;5.15;1.67;;;;;;;25.95;34.37;100917.88;5054462;28;20111;-59
2022/09/03 10:55:14;;;;;;;2.28;1.50;;;;;;;26.14;34.87;100912.81;5031035;28;20048;-59
2022/09/03 10:57:58;;;;;;;4.27;1.53;;;;;;;26.05;34.75;100907.28;5054245;28;20029;-59
2022/09/03 11:00:24;;;;;;;2.05;1.23;;;;;;;26.25;34.46;100910.13;5055861;28;20112;-60
2022/09/03 11:03:12;;;;;;;2.28;1.50;;;;;;;26.23;33.91;100911.22;5069727;28;20077;-60
2022/09/03 11:06:18;;;;;;;4.68;1.50;;;;;;;26.20;34.00;100915.00;5063430;28;20098;-60
2022/09/03 11:08:50;;;;;;;5.97;1.63;;;;;;;26.47;33.97;100925.44;5064421;28;20467;-60
2022/09/03 11:11:20;;;;;;;6.45;1.70;;;;;;;26.40;33.12;100921.53;5068557;28;20036;-60
2022/09/03 11:13:52;;;;;;;3.72;1.70;;;;;;;26.49;33.10;100922.66;5061936;28;20378;-60
2022/09/03 11:16:25;;;;;;;3.65;1.42;;;;;;;26.58;33.76;100920.06;5064123;28;20028;-59
2022/09/03 11:18:53;;;;;;;3.03;1.83;;;;;;;26.68;33.06;100917.50;5066072;28;20119;-60
2022/09/03 11:21:27;;;;;;;3.10;1.48;;;;;;;26.70;32.94;100913.72;5063502;28;20032;-59
2022/09/03 11:24:06;;;;;;;7.97;1.80;;;;;;;26.81;33.27;100912.88;5065157;28;20053;-60
2022/09/03 11:26:34;;;;;;;4.03;1.50;;;;;;;26.88;32.21;100911.41;5062025;28;20070;-60
2022/09/03 11:29:02;;;;;;;4.53;1.40;;;;;;;26.89;32.47;100909.56;5062047;28;20452;-60
2022/09/03 11:31:56;;;;;;;2.47;1.50;;;;;;;26.90;33.29;100905.91;5063333;28;20032;-60
2022/09/03 11:34:31;;;;;;;3.05;1.60;;;;;;;26.87;32.84;100895.41;5062410;28;20025;-60
2022/09/03 11:37:16;;;;;;;3.25;1.70;;;;;;;26.99;32.94;100899.84;5062294;28;20020;-60
2022/09/03 11:39:41;;;;;;;4.22;1.50;;;;;;;26.86;32.13;100891.84;5062412;28;20102;-61
2022/09/03 11:42:12;;;;;;;5.00;1.67;;;;;;;26.97;32.93;100899.09;5063041;28;20534;-60
2022/09/03 11:44:50;;;;;;;2.72;1.75;;;;;;;26.99;32.63;100900.69;5064320;28;20340;-59
2022/09/03 11:47:21;;;;;;;5.05;1.75;;;;;;;26.96;32.85;100900.94;5063982;28;20032;-61
2022/09/03 11:49:52;;;;;;;5.78;1.83;;;;;;;26.87;32.88;100893.56;5062854;28;20029;-59
2022/09/03 11:52:39;;;;;;;2.15;1.65;;;;;;;26.95;33.46;100893.84;5061918;28;20033;-60